Time;durP1;ratioP1;P1;durP2;ratioP2;P2;SDS_P1;SDS_P2;PMS_P1;PMS_P2;Temp;Humidity;BMP_temperature;BMP_pressure;BME280_temperature;BME280_humidity;BME280_pressure;Samples;Min_cycle;Max_cycle;Signal;HPM_P1;HPM_P2
2023/06/14 00:01:47;;;;;;;4.97;2.65;;;;;;;;;;6261115;22;20019;-90
2023/06/14 00:04:13;;;;;;;6.68;3.47;;;;;;;;;;6235834;22;20012;-90
2023/06/14 00:06:41;;;;;;;5.60;3.00;;;;;;;;;;6261078;22;20019;-89
2023/06/14 00:09:08;;;;;;;5.85;3.58;;;;;;;;;;6235060;22;20018;-88
2023/06/14 00:11:34;;;;;;;5.68;2.90;;;;;;;;;;6234847;22;20011;-90
2023/06/14 00:14:00;;;;;;;7.13;3.63;;;;;;;;;;6235223;22;20038;-89
2023/06/14 00:16:27;;;;;;;6.85;3.42;;;;;;;;;;6234814;22;20047;-90
2023/06/14 00:18:53;;;;;;;7.30;2.97;;;;;;;;;;6261776;22;20054;-90
2023/06/14 00:21:19;;;;;;;9.18;3.42;;;;;;;;;;6233986;22;20016;-89
2023/06/14 00:23:45;;;;;;;6.72;3.50;;;;;;;;;;6235658;22;20012;-89
2023/06/14 00:26:11;;;;;;;9.57;3.50;;;;;;;;;;6259909;22;20012;-89
2023/06/14 00:28:37;;;;;;;6.72;3.40;;;;;;;;;;6233912;22;20015;-90
2023/06/14 00:31:03;;;;;;;7.53;3.67;;;;;;;;;;6234414;22;20015;-91
2023/06/14 00:33:29;;;;;;;5.90;3.60;;;;;;;;;;6236213;22;20294;-90
2023/06/14 00:35:55;;;;;;;11.25;4.70;;;;;;;;;;6234993;22;20067;-90
2023/06/14 00:38:21;;;;;;;10.25;4.40;;;;;;;;;;6234097;22;20113;-90
2023/06/14 00:40:47;;;;;;;11.52;4.97;;;;;;;;;;6259849;22;20012;-89
2023/06/14 00:43:14;;;;;;;6.88;5.20;;;;;;;;;;6235155;22;20020;-90
2023/06/14 00:45:40;;;;;;;10.20;4.40;;;;;;;;;;6260784;22;20068;-90
2023/06/14 00:48:07;;;;;;;7.18;4.50;;;;;;;;;;6259702;22;20481;-90
2023/06/14 00:50:33;;;;;;;7.07;4.35;;;;;;;;;;6259808;22;20064;-90
2023/06/14 00:53:03;;;;;;;16.73;6.25;;;;;;;;;;6260749;22;20088;-90
2023/06/14 00:55:29;;;;;;;9.10;5.97;;;;;;;;;;6260629;22;20023;-90
2023/06/14 00:57:56;;;;;;;11.82;5.57;;;;;;;;;;6234052;22;20036;-90
2023/06/14 01:00:22;;;;;;;12.75;5.72;;;;;;;;;;6230318;22;20350;-90
2023/06/14 01:02:49;;;;;;;7.75;6.00;;;;;;;;;;6230970;22;20015;-90
2023/06/14 01:05:16;;;;;;;12.32;6.45;;;;;;;;;;6229935;22;20073;-90
2023/06/14 01:08:01;;;;;;;9.57;5.88;;;;;;;;;;6256193;22;20039;-90
2023/06/14 01:10:41;;;;;;;7.65;6.85;;;;;;;;;;6230220;22;20342;-89
2023/06/14 01:13:07;;;;;;;11.15;6.32;;;;;;;;;;6230050;22;20011;-88
2023/06/14 01:15:34;;;;;;;9.85;6.32;;;;;;;;;;6258671;22;20022;-90
2023/06/14 01:18:02;;;;;;;9.52;5.95;;;;;;;;;;6259975;22;20016;-90
2023/06/14 01:20:32;;;;;;;12.10;6.28;;;;;;;;;;6259883;22;20008;-90
2023/06/14 01:22:59;;;;;;;8.25;5.82;;;;;;;;;;6260045;22;20015;-90
2023/06/14 01:25:26;;;;;;;7.75;5.95;;;;;;;;;;6258303;22;20011;-89
2023/06/14 01:28:00;;;;;;;10.85;7.47;;;;;;;;;;6233754;22;20012;-91
2023/06/14 01:30:27;;;;;;;7.22;6.10;;;;;;;;;;6235262;22;20016;-90
2023/06/14 01:32:54;;;;;;;8.73;6.20;;;;;;;;;;6234630;22;20011;-90
2023/06/14 01:35:21;;;;;;;11.00;6.65;;;;;;;;;;6256664;22;20039;-90
2023/06/14 01:37:49;;;;;;;14.27;6.28;;;;;;;;;;6259378;22;20026;-89
2023/06/14 01:40:19;;;;;;;10.45;6.72;;;;;;;;;;6259296;22;20057;-90
2023/06/14 01:42:46;;;;;;;9.95;7.03;;;;;;;;;;6259871;22;20012;-89
2023/06/14 01:45:13;;;;;;;7.60;6.18;;;;;;;;;;6261986;22;20039;-90
2023/06/14 01:47:39;;;;;;;7.07;6.38;;;;;;;;;;6233697;22;20012;-90
2023/06/14 01:50:05;;;;;;;8.00;6.70;;;;;;;;;;6233438;22;20091;-90
2023/06/14 01:52:31;;;;;;;10.50;5.55;;;;;;;;;;6234396;22;20029;-90
2023/06/14 01:54:58;;;;;;;10.75;5.32;;;;;;;;;;6230259;23;20091;-90
2023/06/14 01:57:26;;;;;;;6.70;5.72;;;;;;;;;;6253637;23;20024;-90
2023/06/14 01:59:52;;;;;;;6.68;4.90;;;;;;;;;;6227566;23;20032;-90
2023/06/14 02:02:18;;;;;;;7.05;5.65;;;;;;;;;;6254184;23;20012;-90
2023/06/14 02:04:47;;;;;;;8.00;5.20;;;;;;;;;;6228813;23;20012;-90
2023/06/14 02:07:13;;;;;;;7.70;5.30;;;;;;;;;;6255062;23;20092;-89
2023/06/14 02:09:40;;;;;;;10.18;4.30;;;;;;;;;;6229982;23;20304;-90
2023/06/14 02:12:06;;;;;;;7.63;5.03;;;;;;;;;;6229092;23;20019;-90
2023/06/14 02:14:33;;;;;;;8.60;7.75;;;;;;;;;;6228484;23;20034;-90
2023/06/14 02:17:00;;;;;;;6.57;3.90;;;;;;;;;;6228561;23;20016;-90
2023/06/14 02:19:27;;;;;;;9.80;5.28;;;;;;;;;;6228022;23;20016;-89
2023/06/14 02:21:53;;;;;;;7.82;7.05;;;;;;;;;;6228355;23;20016;-89
2023/06/14 02:24:19;;;;;;;5.90;4.82;;;;;;;;;;6227809;23;20019;-90
2023/06/14 02:26:46;;;;;;;6.85;5.65;;;;;;;;;;6228620;23;20287;-89
2023/06/14 02:29:14;;;;;;;9.02;8.23;;;;;;;;;;6255118;23;20016;-90
2023/06/14 02:31:40;;;;;;;8.45;6.25;;;;;;;;;;6228019;23;20016;-90
2023/06/14 02:34:08;;;;;;;7.15;5.22;;;;;;;;;;6228501;23;20413;-90
2023/06/14 02:36:35;;;;;;;8.68;5.95;;;;;;;;;;6228186;23;20021;-90
2023/06/14 02:39:01;;;;;;;9.13;8.23;;;;;;;;;;6254089;23;20016;-90
2023/06/14 02:41:27;;;;;;;9.73;7.13;;;;;;;;;;6229065;23;20016;-90
2023/06/14 02:43:53;;;;;;;9.40;6.78;;;;;;;;;;6227653;23;20341;-90
2023/06/14 02:46:19;;;;;;;11.10;10.10;;;;;;;;;;6227217;23;20063;-90
2023/06/14 02:48:45;;;;;;;11.95;10.80;;;;;;;;;;6228924;23;20012;-90
2023/06/14 02:51:12;;;;;;;10.35;8.73;;;;;;;;;;6228223;23;20016;-90
2023/06/14 02:53:38;;;;;;;13.75;12.27;;;;;;;;;;6254534;23;20012;-90
2023/06/14 02:56:05;;;;;;;9.00;8.15;;;;;;;;;;6227743;23;20016;-90
2023/06/14 02:58:31;;;;;;;11.88;10.73;;;;;;;;;;6228492;23;20099;-89
2023/06/14 03:00:57;;;;;;;11.05;10.05;;;;;;;;;;6226749;23;20012;-89
2023/06/14 03:03:24;;;;;;;11.20;10.15;;;;;;;;;;6228575;23;20077;-89
2023/06/14 03:05:51;;;;;;;13.13;10.25;;;;;;;;;;6252839;23;20019;-90
2023/06/14 03:08:19;;;;;;;15.25;13.93;;;;;;;;;;6254095;23;20031;-89
2023/06/14 03:10:48;;;;;;;11.75;9.18;;;;;;;;;;6227406;23;20008;-89
2023/06/14 03:13:15;;;;;;;13.57;11.77;;;;;;;;;;6227342;23;20020;-90
2023/06/14 03:15:42;;;;;;;11.80;10.82;;;;;;;;;;6226291;23;20015;-90
2023/06/14 03:18:11;;;;;;;13.27;12.02;;;;;;;;;;6253344;23;20012;-90
2023/06/14 03:20:38;;;;;;;11.40;10.30;;;;;;;;;;6228872;23;20331;-90
2023/06/14 03:23:05;;;;;;;12.30;9.75;;;;;;;;;;6227698;23;20016;-90
2023/06/14 03:25:32;;;;;;;13.60;11.30;;;;;;;;;;6230279;23;20051;-89
2023/06/14 03:27:59;;;;;;;16.20;14.75;;;;;;;;;;6252650;23;20079;-90
2023/06/14 03:30:25;;;;;;;12.10;10.23;;;;;;;;;;6253998;23;20012;-90
2023/06/14 03:32:55;;;;;;;12.25;11.13;;;;;;;;;;6253946;23;20035;-90
2023/06/14 03:35:21;;;;;;;13.90;12.65;;;;;;;;;;6253463;23;20020;-90
2023/06/14 03:37:48;;;;;;;14.82;13.45;;;;;;;;;;6228356;23;20347;-91
2023/06/14 03:40:16;;;;;;;11.30;10.32;;;;;;;;;;6254443;23;20012;-89
2023/06/14 03:42:42;;;;;;;13.30;12.15;;;;;;;;;;6228087;23;20031;-90
2023/06/14 03:45:08;;;;;;;17.52;14.02;;;;;;;;;;6228168;23;20047;-90
2023/06/14 03:47:34;;;;;;;16.00;14.65;;;;;;;;;;6229228;23;20012;-90
2023/06/14 03:50:01;;;;;;;15.05;13.93;;;;;;;;;;6253485;23;20504;-90
2023/06/14 03:52:27;;;;;;;13.95;12.82;;;;;;;;;;6254682;23;20012;-90
2023/06/14 03:54:54;;;;;;;12.63;11.50;;;;;;;;;;6228823;23;20024;-90
2023/06/14 03:57:20;;;;;;;12.50;11.40;;;;;;;;;;6254409;23;20028;-90
2023/06/14 03:59:46;;;;;;;11.10;9.60;;;;;;;;;;6253793;23;20047;-90
2023/06/14 04:02:15;;;;;;;17.13;15.52;;;;;;;;;;6253851;23;20016;-89
2023/06/14 04:04:44;;;;;;;15.10;11.90;;;;;;;;;;6253211;23;20066;-90
2023/06/14 04:07:11;;;;;;;15.52;14.18;;;;;;;;;;6254740;23;20038;-90
2023/06/14 04:09:37;;;;;;;13.90;12.63;;;;;;;;;;6253111;23;20012;-90
2023/06/14 04:12:03;;;;;;;14.60;13.18;;;;;;;;;;6252246;23;20082;-88
2023/06/14 04:14:30;;;;;;;11.45;10.60;;;;;;;;;;6252699;23;20062;-89
2023/06/14 04:16:56;;;;;;;12.18;10.88;;;;;;;;;;6251255;23;20058;-89
2023/06/14 04:19:22;;;;;;;12.40;11.23;;;;;;;;;;6226099;23;20022;-89
2023/06/14 04:21:48;;;;;;;9.95;9.00;;;;;;;;;;6254933;23;20035;-89
2023/06/14 04:24:14;;;;;;;10.98;9.88;;;;;;;;;;6252751;23;20008;-90
2023/06/14 04:26:44;;;;;;;16.52;14.90;;;;;;;;;;6252764;23;20024;-90
2023/06/14 04:29:14;;;;;;;14.90;13.77;;;;;;;;;;6227068;23;20121;-90
2023/06/14 04:31:40;;;;;;;10.73;9.82;;;;;;;;;;6253389;23;20048;-88
2023/06/14 04:34:06;;;;;;;12.77;10.50;;;;;;;;;;6250561;23;20070;-90
2023/06/14 04:36:38;;;;;;;12.57;11.20;;;;;;;;;;6227960;23;20016;-90
2023/06/14 04:39:04;;;;;;;13.95;11.32;;;;;;;;;;6252714;23;20051;-89
2023/06/14 04:41:31;;;;;;;11.95;10.23;;;;;;;;;;6225251;23;20016;-90
2023/06/14 04:44:03;;;;;;;10.25;8.75;;;;;;;;;;6252298;23;20012;-89
2023/06/14 04:46:30;;;;;;;6.43;5.57;;;;;;;;;;6225654;23;20012;-90
2023/06/14 04:48:56;;;;;;;8.52;6.40;;;;;;;;;;6249155;23;20016;-91
2023/06/14 04:51:29;;;;;;;9.75;5.75;;;;;;;;;;6226209;23;20364;-90
2023/06/14 04:53:56;;;;;;;14.48;6.38;;;;;;;;;;6226349;22;20016;-93
2023/06/14 04:56:24;;;;;;;8.95;6.07;;;;;;;;;;6233095;22;20100;-96
2023/06/14 04:58:51;;;;;;;11.18;5.07;;;;;;;;;;6266727;22;20019;-86
2023/06/14 05:01:17;;;;;;;9.63;5.82;;;;;;;;;;6226355;22;20016;-88
2023/06/14 05:03:44;;;;;;;8.18;5.72;;;;;;;;;;6227549;22;20016;-81
2023/06/14 05:06:11;;;;;;;7.57;5.15;;;;;;;;;;6274877;22;20008;-83
2023/06/14 05:08:37;;;;;;;8.45;5.15;;;;;;;;;;6246101;22;20012;-86
2023/06/14 05:11:04;;;;;;;10.20;5.75;;;;;;;;;;6223857;22;20419;-87
2023/06/14 05:13:32;;;;;;;10.02;5.43;;;;;;;;;;6229505;22;20431;-93
2023/06/14 05:15:59;;;;;;;11.20;5.50;;;;;;;;;;6257326;22;20050;-95
2023/06/14 05:18:25;;;;;;;8.07;5.05;;;;;;;;;;6229173;22;20016;-92
2023/06/14 05:20:51;;;;;;;7.85;5.47;;;;;;;;;;6257521;22;20203;-91
2023/06/14 05:23:17;;;;;;;8.07;5.03;;;;;;;;;;6228516;22;20022;-93
2023/06/14 05:25:44;;;;;;;6.13;4.78;;;;;;;;;;6224739;22;20015;-91
2023/06/14 05:28:11;;;;;;;11.15;4.20;;;;;;;;;;6248145;22;20007;-95
2023/06/14 05:30:38;;;;;;;7.47;3.95;;;;;;;;;;6221751;22;20065;-92
2023/06/14 05:33:04;;;;;;;8.23;4.05;;;;;;;;;;6247377;22;20012;-94
2023/06/14 05:35:30;;;;;;;6.43;4.05;;;;;;;;;;6221664;22;20423;-94
2023/06/14 05:37:56;;;;;;;5.88;3.25;;;;;;;;;;6218622;22;20337;-84
2023/06/14 05:40:22;;;;;;;9.07;4.20;;;;;;;;;;6245474;22;20008;-82
2023/06/14 05:42:48;;;;;;;6.00;4.38;;;;;;;;;;6273699;22;20103;-82
2023/06/14 05:45:15;;;;;;;10.75;5.45;;;;;;;;;;6274665;22;20442;-88
2023/06/14 05:47:42;;;;;;;11.23;6.85;;;;;;;;;;6221519;22;20039;-81
2023/06/14 05:50:08;;;;;;;8.90;7.68;;;;;;;;;;6246913;22;20019;-81
2023/06/14 05:52:35;;;;;;;15.02;13.70;;;;;;;;;;6221612;22;20039;-81
2023/06/14 05:55:02;;;;;;;15.98;14.70;;;;;;;;;;6245970;22;20304;-82
2023/06/14 05:57:28;;;;;;;21.25;19.55;;;;;;;;;;6273377;22;20022;-82
2023/06/14 05:59:54;;;;;;;21.50;20.05;;;;;;;;;;6221177;22;20016;-81
2023/06/14 06:02:20;;;;;;;15.90;14.35;;;;;;;;;;6272702;22;20092;-82
2023/06/14 06:04:46;;;;;;;21.52;20.02;;;;;;;;;;6246413;22;20047;-82
2023/06/14 06:07:12;;;;;;;23.48;21.90;;;;;;;;;;6246353;22;20007;-81
2023/06/14 06:09:38;;;;;;;28.52;26.63;;;;;;;;;;6245432;22;20011;-77
2023/06/14 06:12:06;;;;;;;23.88;22.27;;;;;;;;;;6220295;22;20030;-77
2023/06/14 06:14:31;;;;;;;35.58;33.05;;;;;;;;;;6273817;22;20386;-77
2023/06/14 06:16:58;;;;;;;40.28;37.40;;;;;;;;;;6246322;22;20047;-79
2023/06/14 06:19:24;;;;;;;63.78;59.60;;;;;;;;;;6220891;22;20020;-77
2023/06/14 06:21:50;;;;;;;64.70;60.63;;;;;;;;;;6273753;22;20026;-76
2023/06/14 06:24:16;;;;;;;90.82;85.80;;;;;;;;;;6272997;22;20095;-76
2023/06/14 06:26:42;;;;;;;94.03;88.75;;;;;;;;;;6245997;22;20039;-78
2023/06/14 06:29:08;;;;;;;111.70;105.20;;;;;;;;;;6246027;22;20019;-77
2023/06/14 06:31:34;;;;;;;108.40;102.43;;;;;;;;;;6245980;22;20054;-77
2023/06/14 06:34:00;;;;;;;125.22;118.10;;;;;;;;;;6273541;22;20015;-76
2023/06/14 06:36:26;;;;;;;127.97;120.20;;;;;;;;;;6273122;22;20019;-77
2023/06/14 06:38:52;;;;;;;122.97;116.22;;;;;;;;;;6272418;22;20334;-78
2023/06/14 06:41:19;;;;;;;172.15;161.98;;;;;;;;;;6273203;22;20017;-78
2023/06/14 06:43:45;;;;;;;211.27;198.85;;;;;;;;;;6273543;22;20023;-79
2023/06/14 06:46:10;;;;;;;314.08;294.10;;;;;;;;;;6245939;22;20114;-81
2023/06/14 06:48:36;;;;;;;245.43;230.63;;;;;;;;;;6246120;22;20023;-77
2023/06/14 06:51:02;;;;;;;295.98;278.02;;;;;;;;;;6245763;22;20019;-77
2023/06/14 06:53:28;;;;;;;374.95;351.00;;;;;;;;;;6245293;22;20020;-77
2023/06/14 06:55:55;;;;;;;502.55;466.48;;;;;;;;;;6245854;22;20030;-78
2023/06/14 06:58:22;;;;;;;457.60;426.52;;;;;;;;;;6273493;22;20069;-78
2023/06/14 07:00:48;;;;;;;580.22;538.28;;;;;;;;;;6245692;22;20047;-79
2023/06/14 07:03:14;;;;;;;630.47;584.00;;;;;;;;;;6220692;22;20019;-77
2023/06/14 07:05:40;;;;;;;587.85;544.47;;;;;;;;;;6245986;22;20011;-77
2023/06/14 07:08:05;;;;;;;663.40;614.15;;;;;;;;;;6245087;22;20011;-77
2023/06/14 07:10:31;;;;;;;571.75;530.55;;;;;;;;;;6245622;22;20015;-77
2023/06/14 07:12:58;;;;;;;601.60;556.50;;;;;;;;;;6273211;22;20335;-76
2023/06/14 07:15:24;;;;;;;635.20;588.55;;;;;;;;;;6273293;22;20066;-77
2023/06/14 07:17:51;;;;;;;715.70;659.88;;;;;;;;;;6273217;22;20092;-77
2023/06/14 07:20:17;;;;;;;731.60;674.25;;;;;;;;;;6273069;22;20011;-77
2023/06/14 07:22:43;;;;;;;650.28;601.22;;;;;;;;;;6245043;22;20046;-76
2023/06/14 07:25:12;;;;;;;597.67;553.40;;;;;;;;;;6245566;22;20461;-76
2023/06/14 07:27:38;;;;;;;630.55;583.00;;;;;;;;;;6245765;22;20016;-76
2023/06/14 07:30:04;;;;;;;707.15;653.80;;;;;;;;;;6245673;22;20446;-75
2023/06/14 07:32:30;;;;;;;697.50;644.42;;;;;;;;;;6245701;22;20050;-75
2023/06/14 07:34:56;;;;;;;683.47;632.00;;;;;;;;;;6245527;22;20023;-75
2023/06/14 07:37:22;;;;;;;740.92;683.72;;;;;;;;;;6272378;22;20339;-74
2023/06/14 07:39:48;;;;;;;778.67;717.33;;;;;;;;;;6245648;22;20011;-75
2023/06/14 07:42:14;;;;;;;634.30;588.17;;;;;;;;;;6246089;22;20039;-75
2023/06/14 07:44:40;;;;;;;770.72;709.70;;;;;;;;;;6273731;22;20104;-74
2023/06/14 07:47:06;;;;;;;720.92;666.47;;;;;;;;;;6221060;22;20092;-75
2023/06/14 07:49:32;;;;;;;732.13;675.53;;;;;;;;;;6244160;22;20016;-75
2023/06/14 07:51:59;;;;;;;745.92;686.78;;;;;;;;;;6244909;22;20031;-75
2023/06/14 07:54:26;;;;;;;685.15;632.72;;;;;;;;;;6245547;22;20016;-75
2023/06/14 07:56:52;;;;;;;546.88;507.92;;;;;;;;;;6245790;22;20050;-75
2023/06/14 07:59:18;;;;;;;317.70;298.15;;;;;;;;;;6273154;22;20011;-75
2023/06/14 08:01:46;;;;;;;497.08;463.30;;;;;;;;;;6220630;22;20343;-75
2023/06/14 08:04:15;;;;;;;519.85;483.50;;;;;;;;;;6272910;22;20012;-80
2023/06/14 08:06:44;;;;;;;520.72;484.65;;;;;;;;;;6245739;22;20020;-80
2023/06/14 08:09:11;;;;;;;392.15;366.10;;;;;;;;;;6220397;22;20012;-81
2023/06/14 08:11:37;;;;;;;432.40;403.25;;;;;;;;;;6272667;22;20069;-79
2023/06/14 08:14:03;;;;;;;371.10;347.30;;;;;;;;;;6272917;22;20022;-81
2023/06/14 08:16:29;;;;;;;421.58;393.60;;;;;;;;;;6246144;22;20012;-80
2023/06/14 08:18:55;;;;;;;434.15;404.90;;;;;;;;;;6245500;22;20019;-80
2023/06/14 08:21:21;;;;;;;457.45;427.13;;;;;;;;;;6274408;22;20069;-78
2023/06/14 08:23:48;;;;;;;494.48;460.58;;;;;;;;;;6275053;22;20018;-78
2023/06/14 08:26:14;;;;;;;344.88;323.20;;;;;;;;;;6246444;22;20015;-78
2023/06/14 08:28:40;;;;;;;514.33;478.67;;;;;;;;;;6274581;22;20458;-76
2023/06/14 08:31:06;;;;;;;351.85;329.90;;;;;;;;;;6247621;22;20027;-78
2023/06/14 08:33:35;;;;;;;515.83;480.08;;;;;;;;;;6278038;22;20047;-78
2023/06/14 08:36:01;;;;;;;524.55;488.08;;;;;;;;;;6251704;22;20019;-75
2023/06/14 08:38:27;;;;;;;532.40;495.67;;;;;;;;;;6277329;22;20016;-75
2023/06/14 08:40:57;;;;;;;582.47;540.15;;;;;;;;;;6250326;22;20095;-75
2023/06/14 08:43:23;;;;;;;528.88;491.92;;;;;;;;;;6280393;22;20015;-74
2023/06/14 08:45:51;;;;;;;498.25;463.88;;;;;;;;;;6250394;22;20342;-77
2023/06/14 08:48:20;;;;;;;494.08;460.10;;;;;;;;;;6281236;22;20016;-78
2023/06/14 08:50:47;;;;;;;376.77;352.85;;;;;;;;;;6253673;22;20058;-78
2023/06/14 08:53:19;;;;;;;315.83;296.98;;;;;;;;;;6253037;22;20012;-76
2023/06/14 08:55:45;;;;;;;255.13;240.48;;;;;;;;;;6251771;22;20049;-76
2023/06/14 08:58:14;;;;;;;344.92;322.88;;;;;;;;;;6250196;22;20018;-76
2023/06/14 09:00:42;;;;;;;234.10;220.50;;;;;;;;;;6251700;22;20012;-76
2023/06/14 09:03:13;;;;;;;192.85;181.70;;;;;;;;;;6251505;22;20016;-76
2023/06/14 09:05:39;;;;;;;186.57;175.70;;;;;;;;;;6251031;22;20033;-76
2023/06/14 09:08:06;;;;;;;193.10;182.10;;;;;;;;;;6224654;22;20019;-76
2023/06/14 09:10:37;;;;;;;292.73;275.63;;;;;;;;;;6225205;22;20008;-74
2023/06/14 09:13:04;;;;;;;225.25;212.35;;;;;;;;;;6249856;22;20183;-75
2023/06/14 09:15:31;;;;;;;184.15;173.27;;;;;;;;;;6276569;22;20016;-75
2023/06/14 09:17:57;;;;;;;192.35;180.70;;;;;;;;;;6251145;22;20056;-75
2023/06/14 09:20:25;;;;;;;114.25;108.00;;;;;;;;;;6249398;22;20015;-76
2023/06/14 12:08:21;;;;;;;7.57;4.10;;;26.90;73.00;;;;;;5192583;27;20375;-82
2023/06/14 12:10:47;;;;;;;9.00;3.22;;;27.00;75.50;;;;;;5193511;27;20042;-90
2023/06/14 12:13:13;;;;;;;5.50;3.03;;;27.10;74.80;;;;;;5161320;27;20038;-91
2023/06/14 12:15:38;;;;;;;9.68;3.88;;;26.80;74.50;;;;;;5195686;27;20045;-93
2023/06/14 12:18:08;;;;;;;7.82;3.47;;;27.00;74.20;;;;;;5146456;27;20071;-87
2023/06/14 12:20:34;;;;;;;10.70;5.38;;;27.20;73.70;;;;;;5170346;27;20095;-87
2023/06/14 12:23:02;;;;;;;9.13;7.03;;;27.00;74.80;;;;;;5171879;27;20491;-90
2023/06/14 12:25:34;;;;;;;11.05;8.77;;;27.10;73.80;;;;;;5157715;27;20117;-88
2023/06/14 12:28:06;;;;;;;14.25;13.27;;;27.10;74.70;;;;;;5174163;27;20041;-96
2023/06/14 12:30:31;;;;;;;16.42;15.13;;;27.40;75.20;;;;;;5161840;27;20030;-91
2023/06/14 12:32:57;;;;;;;12.13;11.10;;;27.70;74.30;;;;;;5156624;27;20496;-95
2023/06/14 12:35:23;;;;;;;20.30;18.95;;;27.90;72.80;;;;;;5154040;27;20037;-96
2023/06/14 12:37:48;;;;;;;25.65;23.65;;;28.00;73.80;;;;;;5153583;27;20125;-82
2023/06/14 12:40:14;;;;;;;22.25;20.92;;;28.10;73.50;;;;;;5191639;27;20050;-82
2023/06/14 12:42:44;;;;;;;26.77;25.05;;;27.90;73.70;;;;;;5191699;27;20497;-82
2023/06/14 12:45:10;;;;;;;39.47;36.63;;;27.80;73.60;;;;;;5191861;27;20042;-81
2023/06/14 12:47:36;;;;;;;17.40;16.20;;;27.80;74.00;;;;;;5171933;27;20126;-79
2023/06/14 12:50:02;;;;;;;31.10;29.17;;;27.80;72.90;;;;;;5186865;27;20488;-79
2023/06/14 12:52:27;;;;;;;39.90;37.65;;;27.90;73.50;;;;;;5177752;27;20030;-80
2023/06/14 12:54:53;;;;;;;34.28;32.17;;;28.10;73.90;;;;;;5163951;27;20086;-78
2023/06/14 12:57:19;;;;;;;44.47;41.38;;;28.10;73.50;;;;;;5178951;27;20106;-79
2023/06/14 12:59:45;;;;;;;47.53;44.08;;;28.10;73.20;;;;;;5162088;27;20151;-77
2023/06/14 13:02:16;;;;;;;50.55;47.53;;;28.10;73.90;;;;;;5158498;27;20490;-80
2023/06/14 13:04:43;;;;;;;35.17;32.85;;;27.90;72.90;;;;;;5153752;27;20117;-78
2023/06/14 13:07:10;;;;;;;39.15;36.83;;;27.70;73.30;;;;;;5164351;27;20093;-76
2023/06/14 13:09:36;;;;;;;24.15;22.42;;;27.70;74.90;;;;;;5148027;27;20042;-77
2023/06/14 13:12:02;;;;;;;20.83;19.27;;;27.50;72.70;;;;;;5142837;27;20121;-77
2023/06/14 13:14:28;;;;;;;22.55;21.20;;;27.20;73.60;;;;;;5141995;27;20038;-77
2023/06/14 13:16:55;;;;;;;21.38;19.80;;;27.30;73.60;;;;;;5150262;27;20073;-78
2023/06/14 13:19:21;;;;;;;29.73;27.77;;;27.50;73.00;;;;;;5173817;27;20158;-77
2023/06/14 13:21:46;;;;;;;32.05;30.05;;;27.60;73.20;;;;;;5173621;27;20079;-77
2023/06/14 13:24:12;;;;;;;34.15;32.15;;;27.70;73.90;;;;;;5173370;27;20098;-78
2023/06/14 13:26:38;;;;;;;34.17;31.50;;;27.90;73.90;;;;;;5173637;27;20037;-81
2023/06/14 13:29:03;;;;;;;44.42;41.42;;;28.20;73.60;;;;;;5155523;27;20044;-76
2023/06/14 13:31:29;;;;;;;39.17;36.67;;;28.40;74.20;;;;;;5173150;27;20038;-77
2023/06/14 13:33:55;;;;;;;43.28;40.88;;;28.30;73.10;;;;;;5148058;27;20037;-78
2023/06/14 13:36:21;;;;;;;34.97;32.67;;;28.00;72.80;;;;;;5157756;27;20047;-77
2023/06/14 13:38:46;;;;;;;61.15;57.60;;;28.00;72.90;;;;;;5151051;27;20036;-77
2023/06/14 13:41:12;;;;;;;30.90;29.15;;;28.10;73.00;;;;;;5158114;27;20034;-77
2023/06/14 13:43:37;;;;;;;51.00;47.65;;;27.90;72.10;;;;;;5162867;27;20069;-76
2023/06/14 13:46:03;;;;;;;48.83;45.83;;;28.10;73.10;;;;;;5146503;27;20042;-77
2023/06/14 13:48:29;;;;;;;52.63;49.40;;;27.90;71.70;;;;;;5135854;27;20042;-79
2023/06/14 13:50:55;;;;;;;46.15;43.35;;;28.10;73.50;;;;;;5150449;27;20046;-78
2023/06/14 13:53:20;;;;;;;30.08;28.15;;;28.20;72.70;;;;;;5150169;27;20038;-79
2023/06/14 13:55:46;;;;;;;50.05;46.97;;;28.10;72.30;;;;;;5140087;27;20539;-75
2023/06/14 13:58:12;;;;;;;26.27;24.55;;;28.20;73.50;;;;;;5167156;27;20038;-76
2023/06/14 14:00:40;;;;;;;60.80;57.42;;;28.20;72.40;;;;;;5154924;27;20371;-77
2023/06/14 14:03:06;;;;;;;60.35;56.80;;;28.40;73.50;;;;;;5147059;27;20565;-88
2023/06/14 14:05:32;;;;;;;85.15;80.57;;;28.50;72.60;;;;;;5144906;27;20041;-86
2023/06/14 14:07:58;;;;;;;71.53;67.65;;;28.50;73.20;;;;;;5111152;27;20043;-80
2023/06/14 14:10:27;;;;;;;45.90;43.40;;;28.10;73.80;;;;;;5128399;27;20035;-86
2023/06/14 14:12:54;;;;;;;42.08;39.50;;;27.80;72.90;;;;;;5092225;28;20039;-86
2023/06/14 14:15:20;;;;;;;52.60;49.47;;;27.60;73.20;;;;;;5117248;27;20027;-85
2023/06/14 14:17:47;;;;;;;52.22;49.10;;;27.80;73.50;;;;;;5112044;27;20042;-85
2023/06/14 14:20:15;;;;;;;60.85;57.63;;;27.90;73.70;;;;;;5127578;27;20047;-83
2023/06/14 14:22:43;;;;;;;64.43;60.75;;;28.40;73.90;;;;;;5127656;27;20045;-86
2023/06/14 14:25:10;;;;;;;46.58;44.03;;;28.40;73.20;;;;;;5112246;27;20480;-86
2023/06/14 14:27:36;;;;;;;70.00;66.20;;;28.30;72.40;;;;;;5112171;27;20031;-85
2023/06/14 14:30:03;;;;;;;59.13;55.88;;;28.20;72.50;;;;;;5125350;27;20415;-85
2023/06/14 14:32:28;;;;;;;38.65;36.30;;;28.00;73.20;;;;;;5128499;27;20463;-83
2023/06/14 14:34:54;;;;;;;36.40;34.28;;;27.70;72.80;;;;;;5129195;27;20035;-85
2023/06/14 14:37:20;;;;;;;24.67;23.15;;;27.40;73.20;;;;;;5129106;27;20111;-84
2023/06/14 14:39:46;;;;;;;21.00;19.60;;;27.10;73.40;;;;;;5124546;27;20032;-84
2023/06/14 14:42:12;;;;;;;34.75;32.45;;;27.30;72.40;;;;;;5123810;27;20065;-86
2023/06/14 14:44:38;;;;;;;23.88;21.83;;;27.40;73.10;;;;;;5114355;27;20426;-83
2023/06/14 14:47:04;;;;;;;28.17;26.00;;;27.60;72.60;;;;;;5129580;27;20043;-76
2023/06/14 14:49:31;;;;;;;41.45;39.10;;;27.80;72.40;;;;;;5111068;27;20070;-80
2023/06/14 14:51:56;;;;;;;36.38;34.30;;;28.20;71.20;;;;;;5128371;27;20043;-79
2023/06/14 14:54:23;;;;;;;41.28;38.90;;;28.50;71.90;;;;;;5111402;27;20093;-78
2023/06/14 14:56:49;;;;;;;44.92;42.30;;;28.90;72.00;;;;;;5127955;27;20068;-79
2023/06/14 14:59:14;;;;;;;88.97;84.03;;;29.10;72.60;;;;;;5127859;27;20031;-78
2023/06/14 15:01:40;;;;;;;121.55;114.90;;;29.20;72.40;;;;;;5128674;27;20077;-78
2023/06/14 15:04:06;;;;;;;109.43;103.53;;;29.20;72.70;;;;;;5111019;27;20506;-78
2023/06/14 15:06:32;;;;;;;147.82;139.73;;;29.20;72.50;;;;;;5115366;27;20047;-82
2023/06/14 15:08:57;;;;;;;116.72;110.13;;;28.80;71.70;;;;;;5129516;27;20043;-85
2023/06/14 15:11:23;;;;;;;106.55;100.53;;;28.20;72.20;;;;;;5129055;27;20362;-81
2023/06/14 15:13:49;;;;;;;77.35;73.18;;;28.00;72.20;;;;;;5130838;27;20027;-85
2023/06/14 15:16:15;;;;;;;91.30;86.10;;;27.80;72.00;;;;;;5111318;27;20043;-84
2023/06/14 15:18:40;;;;;;;63.10;59.50;;;27.70;72.40;;;;;;5147321;27;20177;-82
2023/06/14 15:21:06;;;;;;;54.38;51.22;;;27.70;72.20;;;;;;5151301;27;20110;-88
2023/06/14 15:23:31;;;;;;;71.93;67.95;;;27.60;71.80;;;;;;5131983;27;20361;-84
2023/06/14 15:25:58;;;;;;;75.90;71.28;;;28.00;72.80;;;;;;5132023;27;20040;-86
2023/06/14 15:28:28;;;;;;;73.65;69.63;;;28.10;72.50;;;;;;5132854;27;20046;-82
2023/06/14 15:30:54;;;;;;;87.22;82.47;;;28.40;71.90;;;;;;5128780;27;20049;-86
2023/06/14 15:33:20;;;;;;;104.50;98.97;;;28.70;72.40;;;;;;5128100;27;20525;-76
2023/06/14 15:35:46;;;;;;;96.10;91.10;;;28.70;71.30;;;;;;5128133;27;20038;-78
2023/06/14 15:38:12;;;;;;;113.53;107.00;;;28.80;71.20;;;;;;5142850;27;20400;-78
2023/06/14 15:40:37;;;;;;;154.90;146.60;;;28.80;72.70;;;;;;5149424;27;20039;-77
2023/06/14 15:43:03;;;;;;;76.47;72.13;;;28.60;72.50;;;;;;5147741;27;20043;-78
2023/06/14 15:45:29;;;;;;;139.63;131.90;;;28.40;71.40;;;;;;5130582;27;20031;-78
2023/06/14 15:47:55;;;;;;;99.80;94.45;;;28.20;73.20;;;;;;5146331;27;20046;-77
2023/06/14 15:50:21;;;;;;;88.20;83.40;;;28.00;72.40;;;;;;5147897;27;20372;-79
2023/06/14 15:52:47;;;;;;;49.00;46.13;;;27.80;72.90;;;;;;5148402;27;20058;-78
2023/06/14 15:55:12;;;;;;;54.85;51.45;;;27.50;72.90;;;;;;5148090;27;20531;-79
2023/06/14 15:57:38;;;;;;;42.10;39.50;;;27.50;73.10;;;;;;5139024;27;20057;-77
2023/06/14 16:00:04;;;;;;;33.78;31.58;;;27.50;72.80;;;;;;5127612;28;20043;-79
2023/06/14 16:02:30;;;;;;;23.92;21.73;;;27.60;72.70;;;;;;5125949;28;20043;-79
2023/06/14 16:04:55;;;;;;;31.13;29.27;;;27.40;72.40;;;;;;5110774;28;20104;-78
2023/06/14 16:07:21;;;;;;;24.17;22.58;;;27.20;72.10;;;;;;5119836;27;20054;-78
2023/06/14 16:09:47;;;;;;;30.20;28.25;;;27.40;72.90;;;;;;5128490;27;20114;-77
2023/06/14 16:12:12;;;;;;;20.75;19.40;;;27.60;72.70;;;;;;5145810;27;20617;-78
2023/06/14 16:14:38;;;;;;;18.55;17.27;;;27.50;71.10;;;;;;5146215;27;20125;-77
2023/06/14 16:17:04;;;;;;;18.45;17.23;;;27.40;72.00;;;;;;5144499;27;20507;-78
2023/06/14 16:19:30;;;;;;;22.05;20.45;;;27.40;72.20;;;;;;5135382;27;20051;-77
2023/06/14 16:21:55;;;;;;;33.47;31.08;;;27.50;72.10;;;;;;5131439;27;20045;-77